Time;durP1;ratioP1;P1;durP2;ratioP2;P2;SDS_P1;SDS_P2;PMS_P1;PMS_P2;Temp;Humidity;BMP_temperature;BMP_pressure;BME280_temperature;BME280_humidity;BME280_pressure;Samples;Min_cycle;Max_cycle;Signal;HPM_P1;HPM_P2
2024/02/24 00:01:27;;;;;;;1.47;1.10;;;4.80;99.90;;;;;;5075646;28;20185;-63
2024/02/24 00:03:53;;;;;;;1.00;1.00;;;4.80;99.90;;;;;;5075638;28;20162;-63
2024/02/24 00:06:18;;;;;;;1.73;1.63;;;4.80;99.90;;;;;;5075596;28;20580;-63
2024/02/24 00:08:44;;;;;;;1.67;1.33;;;4.70;99.90;;;;;;5075530;28;20173;-64
2024/02/24 00:11:09;;;;;;;1.50;1.40;;;4.60;99.90;;;;;;5075691;28;20187;-63
2024/02/24 00:13:35;;;;;;;1.23;1.03;;;4.50;99.90;;;;;;5075910;28;20523;-63
2024/02/24 00:16:05;;;;;;;1.40;1.23;;;4.40;99.90;;;;;;5075573;28;20169;-63
2024/02/24 00:18:30;;;;;;;0.80;0.80;;;4.50;99.90;;;;;;5075338;28;20182;-64
2024/02/24 00:20:56;;;;;;;1.07;0.93;;;4.50;99.90;;;;;;5075501;28;20197;-63
2024/02/24 00:23:23;;;;;;;1.57;0.90;;;4.60;99.90;;;;;;5075552;28;20468;-64
2024/02/24 00:25:48;;;;;;;1.10;0.90;;;4.70;99.90;;;;;;5075526;28;20193;-64
2024/02/24 00:28:14;;;;;;;1.40;1.03;;;4.70;99.90;;;;;;5075178;28;20171;-64
2024/02/24 00:30:40;;;;;;;1.23;1.23;;;4.80;99.90;;;;;;5076252;28;20173;-64
2024/02/24 00:33:05;;;;;;;1.13;1.03;;;4.80;99.90;;;;;;5075191;28;20170;-64
2024/02/24 00:35:31;;;;;;;2.53;1.17;;;4.90;99.90;;;;;;5075118;28;20169;-64
2024/02/24 00:37:57;;;;;;;2.33;1.60;;;4.80;99.90;;;;;;5074912;28;20167;-64
2024/02/24 00:40:22;;;;;;;3.03;1.53;;;4.90;99.90;;;;;;5077045;28;20287;-64
2024/02/24 00:42:48;;;;;;;1.57;1.10;;;4.80;99.90;;;;;;5075918;28;20189;-64
2024/02/24 00:45:14;;;;;;;2.80;1.50;;;4.80;99.90;;;;;;5074831;28;20201;-64
2024/02/24 00:47:39;;;;;;;0.73;0.73;;;4.80;99.90;;;;;;5074688;28;20177;-64
2024/02/24 00:50:06;;;;;;;1.53;1.13;;;4.80;99.90;;;;;;5074782;28;20180;-64
2024/02/24 00:52:32;;;;;;;2.03;0.98;;;4.80;99.90;;;;;;5074662;28;20190;-64
2024/02/24 00:54:59;;;;;;;1.70;1.60;;;4.90;99.90;;;;;;5075078;28;20170;-63
2024/02/24 00:57:25;;;;;;;2.58;0.90;;;4.90;99.90;;;;;;5074358;28;20178;-64
2024/02/24 00:59:51;;;;;;;0.90;0.90;;;4.80;99.90;;;;;;5074801;28;20177;-64
2024/02/24 01:02:17;;;;;;;0.63;0.63;;;4.80;99.90;;;;;;5074935;28;20620;-63
2024/02/24 01:04:42;;;;;;;0.97;0.97;;;4.70;99.90;;;;;;5074384;28;21029;-63
2024/02/24 01:07:10;;;;;;;1.10;1.00;;;4.70;99.90;;;;;;5074418;28;20223;-63
2024/02/24 01:09:37;;;;;;;8.18;1.10;;;4.60;99.90;;;;;;5073725;28;20183;-64
2024/02/24 01:12:02;;;;;;;0.85;0.77;;;4.70;99.90;;;;;;5074542;28;20293;-63
2024/02/24 01:14:28;;;;;;;1.40;1.10;;;4.70;99.90;;;;;;5074593;28;20252;-64
2024/02/24 01:16:54;;;;;;;2.30;1.33;;;4.80;99.90;;;;;;5074785;28;20466;-63
2024/02/24 01:19:19;;;;;;;2.73;1.03;;;4.80;99.90;;;;;;5074227;28;20404;-63
2024/02/24 01:21:45;;;;;;;2.93;1.23;;;4.70;99.90;;;;;;5074497;28;20181;-63
2024/02/24 01:24:13;;;;;;;0.80;0.80;;;4.70;99.90;;;;;;5074918;28;20562;-63
2024/02/24 01:26:39;;;;;;;1.73;0.80;;;4.80;99.90;;;;;;5074393;28;20170;-64
2024/02/24 01:29:04;;;;;;;1.00;1.00;;;4.90;99.90;;;;;;5074046;28;20266;-63
2024/02/24 01:31:31;;;;;;;2.73;0.90;;;4.90;99.90;;;;;;5073918;28;20254;-62
2024/02/24 01:33:56;;;;;;;1.08;1.00;;;4.80;99.90;;;;;;5073833;28;20178;-62
2024/02/24 01:36:26;;;;;;;1.83;0.90;;;4.80;99.90;;;;;;5073408;28;20559;-62
2024/02/24 01:38:53;;;;;;;2.42;1.40;;;4.90;99.90;;;;;;5073171;28;20170;-62
2024/02/24 01:41:19;;;;;;;0.93;0.93;;;5.00;99.90;;;;;;5073279;28;20189;-62
2024/02/24 01:43:45;;;;;;;0.93;0.93;;;4.90;99.90;;;;;;5073185;28;20673;-62
2024/02/24 01:46:13;;;;;;;0.97;0.97;;;4.80;99.90;;;;;;5073126;28;20208;-62
2024/02/24 01:48:39;;;;;;;3.90;0.82;;;4.80;99.90;;;;;;5073119;28;20173;-62
2024/02/24 01:51:06;;;;;;;1.13;0.80;;;4.90;99.90;;;;;;5073059;28;20634;-62
2024/02/24 01:53:32;;;;;;;0.50;0.50;;;5.00;99.90;;;;;;5073124;28;20212;-62
2024/02/24 01:56:00;;;;;;;1.25;0.95;;;5.00;99.90;;;;;;5072976;28;20186;-62
2024/02/24 01:58:28;;;;;;;0.82;0.82;;;5.00;99.90;;;;;;5072741;28;20184;-62
2024/02/24 02:00:54;;;;;;;0.80;0.80;;;4.90;99.90;;;;;;5072687;28;20684;-62
2024/02/24 02:03:20;;;;;;;0.87;0.60;;;4.90;99.90;;;;;;5072822;28;20235;-62
2024/02/24 02:05:47;;;;;;;0.53;0.50;;;4.80;99.90;;;;;;5072573;28;20455;-64
2024/02/24 02:08:13;;;;;;;0.60;0.60;;;4.80;99.90;;;;;;5072557;28;20177;-62
2024/02/24 02:10:57;;;;;;;1.07;0.80;;;4.70;99.90;;;;;;5072674;28;20211;-61
2024/02/24 02:13:23;;;;;;;0.57;0.57;;;4.60;99.90;;;;;;5072700;28;20181;-62
2024/02/24 02:15:52;;;;;;;1.38;1.23;;;4.60;99.90;;;;;;5072443;28;20182;-62
2024/02/24 02:18:18;;;;;;;1.02;1.02;;;4.70;99.90;;;;;;5072261;28;20710;-62
2024/02/24 02:20:46;;;;;;;0.95;0.95;;;4.60;99.90;;;;;;5071927;28;20554;-62
2024/02/24 02:23:13;;;;;;;0.70;0.70;;;4.60;99.90;;;;;;5072112;28;20650;-62
2024/02/24 02:25:38;;;;;;;1.25;1.05;;;4.60;99.90;;;;;;5072341;28;20204;-62
2024/02/24 02:28:04;;;;;;;1.40;1.30;;;4.40;99.90;;;;;;5072022;28;20169;-61
2024/02/24 02:30:30;;;;;;;1.03;0.70;;;4.30;99.90;;;;;;5072173;28;20162;-62
2024/02/24 02:32:56;;;;;;;2.10;1.20;;;4.40;99.90;;;;;;5072280;28;20415;-62
2024/02/24 02:35:21;;;;;;;1.13;1.13;;;4.40;99.90;;;;;;5072273;28;20165;-62
2024/02/24 02:37:47;;;;;;;0.70;0.70;;;4.30;99.90;;;;;;5071977;28;20188;-62
2024/02/24 02:40:12;;;;;;;1.40;1.30;;;4.30;99.90;;;;;;5072191;28;20593;-62
2024/02/24 02:42:38;;;;;;;0.70;0.70;;;4.20;99.90;;;;;;5071874;28;20193;-62
2024/02/24 02:45:04;;;;;;;1.07;0.97;;;4.30;99.90;;;;;;5071976;28;20224;-62
2024/02/24 02:47:30;;;;;;;0.95;0.93;;;4.40;99.90;;;;;;5071893;28;20204;-62
2024/02/24 02:49:56;;;;;;;0.70;0.70;;;4.50;99.90;;;;;;5072038;28;20206;-62
2024/02/24 02:52:21;;;;;;;0.80;0.80;;;4.40;99.90;;;;;;5071904;28;20225;-62
2024/02/24 02:54:47;;;;;;;1.10;0.90;;;4.30;99.90;;;;;;5071904;28;20177;-62
2024/02/24 02:57:13;;;;;;;1.00;0.80;;;4.20;99.90;;;;;;5071500;28;20545;-62
2024/02/24 02:59:38;;;;;;;0.70;0.70;;;4.20;99.90;;;;;;5071826;28;20230;-62
2024/02/24 03:02:04;;;;;;;1.07;1.07;;;4.30;99.90;;;;;;5071755;28;20201;-62
2024/02/24 03:04:29;;;;;;;0.70;0.70;;;4.40;99.90;;;;;;5071867;28;20562;-61
2024/02/24 03:06:55;;;;;;;1.40;0.83;;;4.50;99.90;;;;;;5071715;28;20200;-62
2024/02/24 03:09:20;;;;;;;0.90;0.90;;;4.60;99.90;;;;;;5071602;28;20165;-62
2024/02/24 03:11:46;;;;;;;0.90;0.90;;;4.60;99.90;;;;;;5071514;28;20245;-61
2024/02/24 03:14:12;;;;;;;0.80;0.80;;;4.60;99.90;;;;;;5071624;28;20240;-61
2024/02/24 03:16:38;;;;;;;1.27;1.17;;;4.60;99.90;;;;;;5071626;28;20414;-62
2024/02/24 03:19:03;;;;;;;1.20;1.10;;;4.50;99.90;;;;;;5071421;28;20555;-62
2024/02/24 03:21:31;;;;;;;2.43;0.97;;;4.50;99.90;;;;;;5071607;28;20206;-62
2024/02/24 03:23:57;;;;;;;1.80;1.20;;;4.50;99.90;;;;;;5071501;28;20174;-62
2024/02/24 03:26:23;;;;;;;0.65;0.65;;;4.50;99.90;;;;;;5071351;28;20247;-62
2024/02/24 03:28:49;;;;;;;0.73;0.73;;;4.60;99.90;;;;;;5071265;28;20639;-62
2024/02/24 03:31:14;;;;;;;0.57;0.57;;;4.60;99.90;;;;;;5070860;28;20202;-62
2024/02/24 03:33:41;;;;;;;1.00;1.00;;;4.50;99.90;;;;;;5070763;28;20181;-61
2024/02/24 03:36:11;;;;;;;1.13;0.90;;;4.10;99.90;;;;;;5071405;28;20211;-62
2024/02/24 03:38:36;;;;;;;0.82;0.80;;;3.70;99.90;;;;;;5071195;28;20232;-62
2024/02/24 03:41:02;;;;;;;2.13;0.80;;;3.70;99.90;;;;;;5071356;28;20193;-62
2024/02/24 03:43:27;;;;;;;1.00;1.00;;;4.00;99.90;;;;;;5071311;28;20173;-62
2024/02/24 03:45:53;;;;;;;0.73;0.73;;;4.20;99.90;;;;;;5071284;28;20201;-62
2024/02/24 03:48:18;;;;;;;0.40;0.40;;;4.40;99.90;;;;;;5070957;28;20244;-62
2024/02/24 03:50:44;;;;;;;1.60;1.50;;;4.50;99.90;;;;;;5071462;28;20659;-61
2024/02/24 03:53:10;;;;;;;0.70;0.70;;;4.50;99.90;;;;;;5071306;28;20180;-62
2024/02/24 03:55:35;;;;;;;1.10;1.10;;;4.50;99.90;;;;;;5071351;28;20562;-62
2024/02/24 03:58:01;;;;;;;0.80;0.80;;;4.50;99.90;;;;;;5071114;28;20173;-62
2024/02/24 04:00:27;;;;;;;1.03;0.90;;;4.50;99.90;;;;;;5071202;28;20180;-62
2024/02/24 04:02:52;;;;;;;0.67;0.60;;;4.40;99.90;;;;;;5071014;28;20208;-61
2024/02/24 04:05:18;;;;;;;1.30;0.70;;;4.30;99.90;;;;;;5071131;28;20575;-62
2024/02/24 04:07:43;;;;;;;2.17;1.03;;;4.20;99.90;;;;;;5070930;28;20170;-62
2024/02/24 04:10:09;;;;;;;1.10;1.00;;;4.10;99.90;;;;;;5071152;28;20180;-62
2024/02/24 04:12:35;;;;;;;1.37;1.33;;;4.00;99.90;;;;;;5070905;28;20190;-62
2024/02/24 04:15:00;;;;;;;0.80;0.70;;;3.90;99.90;;;;;;5071017;28;20257;-62
2024/02/24 04:17:26;;;;;;;1.40;0.80;;;3.90;99.90;;;;;;5070705;28;20206;-62
2024/02/24 04:19:51;;;;;;;0.73;0.73;;;3.90;99.90;;;;;;5071058;28;20223;-62
2024/02/24 04:22:17;;;;;;;0.53;0.53;;;3.80;99.90;;;;;;5071111;28;20660;-62
2024/02/24 04:24:43;;;;;;;0.77;0.70;;;3.80;99.90;;;;;;5070903;28;20221;-62
2024/02/24 04:27:08;;;;;;;0.50;0.50;;;3.80;99.90;;;;;;5070632;28;20547;-62
2024/02/24 04:29:34;;;;;;;1.63;0.60;;;3.80;99.90;;;;;;5070936;28;20181;-62
2024/02/24 04:31:59;;;;;;;4.60;0.80;;;3.80;99.90;;;;;;5070590;28;20597;-62
2024/02/24 04:34:25;;;;;;;0.60;0.60;;;3.70;99.90;;;;;;5070908;28;20169;-62
2024/02/24 04:36:51;;;;;;;0.60;0.60;;;3.90;99.90;;;;;;5070721;28;20174;-61
2024/02/24 04:39:16;;;;;;;0.60;0.60;;;4.00;99.90;;;;;;5070577;28;20529;-62
2024/02/24 04:41:42;;;;;;;0.63;0.63;;;4.00;99.90;;;;;;5070855;28;20262;-62
2024/02/24 04:44:07;;;;;;;0.77;0.77;;;4.00;99.90;;;;;;5070905;28;20670;-62
2024/02/24 04:46:34;;;;;;;0.53;0.50;;;4.00;99.90;;;;;;5074137;28;20656;-62
2024/02/24 04:49:00;;;;;;;0.80;0.80;;;4.00;99.90;;;;;;5074100;28;20178;-62
2024/02/24 04:51:26;;;;;;;0.60;0.57;;;4.00;99.90;;;;;;5074250;28;20240;-62
2024/02/24 04:53:52;;;;;;;0.47;0.47;;;4.10;99.90;;;;;;5074194;28;20161;-62
2024/02/24 04:56:17;;;;;;;0.50;0.50;;;4.10;99.90;;;;;;5074155;28;20169;-61
2024/02/24 04:58:44;;;;;;;0.73;0.50;;;4.10;99.90;;;;;;5073954;28;20244;-61
2024/02/24 05:01:10;;;;;;;0.77;0.77;;;4.10;99.90;;;;;;5073951;28;20968;-62
2024/02/24 05:03:36;;;;;;;0.75;0.47;;;4.10;99.90;;;;;;5074278;28;20539;-62
2024/02/24 05:06:02;;;;;;;0.90;0.90;;;4.20;99.90;;;;;;5073922;28;20255;-62
2024/02/24 05:08:28;;;;;;;0.60;0.60;;;4.20;99.90;;;;;;5073863;28;20223;-62
2024/02/24 05:10:53;;;;;;;0.60;0.60;;;4.00;99.90;;;;;;5073936;28;20197;-62
2024/02/24 05:13:19;;;;;;;5.40;0.73;;;4.10;99.90;;;;;;5073885;28;20165;-61
2024/02/24 05:15:45;;;;;;;0.60;0.60;;;4.10;99.90;;;;;;5073788;28;20170;-62
2024/02/24 05:18:10;;;;;;;0.70;0.70;;;4.20;99.90;;;;;;5073592;28;20655;-62
2024/02/24 05:20:36;;;;;;;0.60;0.60;;;4.10;99.90;;;;;;5073700;28;20180;-62
2024/02/24 05:23:02;;;;;;;0.50;0.50;;;4.10;99.90;;;;;;5073755;28;20407;-62
2024/02/24 05:25:27;;;;;;;0.53;0.53;;;4.00;99.90;;;;;;5073612;28;20613;-62
2024/02/24 05:27:53;;;;;;;0.40;0.40;;;4.00;99.90;;;;;;5073345;28;20215;-62
2024/02/24 05:30:19;;;;;;;0.50;0.50;;;4.00;99.90;;;;;;5073505;28;20254;-62
2024/02/24 05:32:45;;;;;;;0.43;0.43;;;4.00;99.90;;;;;;5073356;28;20278;-62
2024/02/24 05:35:11;;;;;;;0.87;0.67;;;3.90;99.90;;;;;;5073523;28;20490;-62
2024/02/24 05:37:36;;;;;;;1.90;1.10;;;4.00;99.90;;;;;;5073225;28;20197;-62
2024/02/24 05:40:02;;;;;;;0.40;0.40;;;4.00;99.90;;;;;;5073369;28;20165;-62
2024/02/24 05:42:29;;;;;;;0.60;0.60;;;4.10;99.90;;;;;;5073312;28;20225;-62
2024/02/24 05:44:54;;;;;;;0.43;0.43;;;4.10;99.90;;;;;;5073165;28;20678;-62
2024/02/24 05:47:20;;;;;;;0.60;0.47;;;4.10;99.90;;;;;;5073052;28;20434;-62
2024/02/24 05:49:46;;;;;;;0.40;0.40;;;4.00;99.90;;;;;;5073238;28;20182;-62
2024/02/24 05:52:11;;;;;;;0.40;0.40;;;4.00;99.90;;;;;;5073083;28;20193;-61
2024/02/24 05:54:40;;;;;;;1.53;0.50;;;4.00;99.90;;;;;;5073128;28;20630;-62
2024/02/24 05:57:07;;;;;;;0.77;0.77;;;4.00;99.90;;;;;;5072624;28;20678;-62
2024/02/24 05:59:33;;;;;;;0.85;0.85;;;4.10;99.90;;;;;;5072930;28;20641;-62
2024/02/24 06:02:00;;;;;;;1.27;0.75;;;4.10;99.90;;;;;;5072811;28;20388;-62
2024/02/24 06:04:25;;;;;;;0.77;0.77;;;4.10;99.90;;;;;;5072853;28;20180;-62
2024/02/24 06:06:51;;;;;;;0.50;0.50;;;4.10;99.90;;;;;;5072630;28;20173;-62
2024/02/24 06:09:16;;;;;;;0.90;0.73;;;4.20;99.90;;;;;;5072659;28;20197;-62
2024/02/24 06:11:42;;;;;;;0.50;0.50;;;4.20;99.90;;;;;;5072665;28;20192;-62
2024/02/24 06:14:08;;;;;;;0.70;0.70;;;4.20;99.90;;;;;;5072577;28;20647;-62
2024/02/24 06:16:34;;;;;;;0.60;0.60;;;4.10;99.90;;;;;;5072821;28;20869;-62
2024/02/24 06:18:59;;;;;;;0.40;0.40;;;4.00;99.90;;;;;;5072452;28;20212;-62
2024/02/24 06:21:28;;;;;;;0.50;0.50;;;3.90;99.90;;;;;;5072464;28;20236;-62
2024/02/24 06:23:53;;;;;;;0.80;0.70;;;3.80;99.90;;;;;;5072523;28;20403;-62
2024/02/24 06:26:19;;;;;;;0.50;0.50;;;3.70;99.90;;;;;;5072335;28;20710;-62
2024/02/24 06:28:45;;;;;;;0.97;0.60;;;3.90;99.90;;;;;;5072053;28;20162;-62
2024/02/24 06:31:13;;;;;;;0.50;0.50;;;3.80;99.90;;;;;;5072219;28;20201;-62
2024/02/24 06:33:39;;;;;;;0.50;0.50;;;3.90;99.90;;;;;;5072452;28;20170;-63
2024/02/24 06:36:05;;;;;;;0.60;0.60;;;3.90;99.90;;;;;;5072258;28;20526;-62
2024/02/24 06:38:31;;;;;;;0.50;0.50;;;4.00;99.90;;;;;;5071994;28;20256;-62
2024/02/24 06:40:57;;;;;;;0.60;0.60;;;4.10;99.90;;;;;;5072038;28;20672;-62
2024/02/24 06:43:22;;;;;;;0.50;0.50;;;4.10;99.90;;;;;;5071983;28;20173;-62
2024/02/24 06:45:48;;;;;;;1.17;0.60;;;4.10;99.90;;;;;;5072022;28;20201;-63
2024/02/24 06:48:14;;;;;;;0.80;0.80;;;4.20;99.90;;;;;;5071724;28;20231;-63
2024/02/24 06:50:40;;;;;;;0.50;0.50;;;4.20;99.90;;;;;;5071957;28;20415;-62
2024/02/24 06:53:06;;;;;;;0.50;0.50;;;4.30;99.90;;;;;;5071727;28;20193;-62
2024/02/24 06:55:31;;;;;;;1.13;0.83;;;4.30;99.90;;;;;;5071766;28;20651;-63
2024/02/24 06:57:57;;;;;;;0.53;0.53;;;4.30;99.90;;;;;;5071193;28;20252;-63
2024/02/24 07:00:23;;;;;;;0.50;0.50;;;4.30;99.90;;;;;;5071543;28;20212;-62
2024/02/24 07:02:53;;;;;;;0.63;0.60;;;4.30;99.90;;;;;;5071955;28;20201;-62
2024/02/24 07:05:19;;;;;;;0.90;0.80;;;4.40;99.90;;;;;;5071831;28;20201;-61
2024/02/24 07:07:44;;;;;;;0.80;0.80;;;4.50;99.90;;;;;;5071169;28;20239;-62
2024/02/24 07:10:10;;;;;;;0.73;0.73;;;4.30;99.90;;;;;;5071704;28;20400;-62
2024/02/24 07:12:36;;;;;;;0.80;0.80;;;4.20;99.90;;;;;;5071568;28;20190;-62
2024/02/24 07:15:02;;;;;;;0.73;0.73;;;4.20;99.90;;;;;;5071709;28;20271;-62
2024/02/24 07:17:28;;;;;;;0.50;0.50;;;4.50;99.90;;;;;;5071144;28;20182;-63
2024/02/24 07:19:55;;;;;;;0.65;0.57;;;4.70;99.90;;;;;;5071411;28;20169;-63
2024/02/24 07:22:21;;;;;;;0.70;0.70;;;4.70;99.90;;;;;;5071498;28;20239;-63
2024/02/24 07:24:46;;;;;;;0.77;0.77;;;4.70;99.70;;;;;;5071413;28;20238;-62
2024/02/24 07:27:12;;;;;;;0.80;0.80;;;4.80;99.70;;;;;;5070951;28;20652;-62
2024/02/24 07:29:38;;;;;;;0.55;0.55;;;4.60;99.10;;;;;;5071543;28;20165;-62
2024/02/24 07:32:04;;;;;;;0.90;0.90;;;4.60;99.00;;;;;;5071292;28;20295;-63
2024/02/24 07:34:30;;;;;;;0.50;0.50;;;4.70;99.40;;;;;;5075845;22;20304;-64
2024/02/24 07:36:55;;;;;;;0.90;0.60;;;5.00;99.80;;;;;;5070715;28;20737;-64
2024/02/24 07:39:21;;;;;;;1.30;1.30;;;5.00;98.20;;;;;;5070128;28;20197;-64
2024/02/24 07:41:47;;;;;;;0.87;0.70;;;5.20;98.50;;;;;;5071008;28;20560;-64
2024/02/24 07:44:13;;;;;;;0.50;0.50;;;5.50;98.40;;;;;;5071315;28;20197;-64
2024/02/24 07:46:38;;;;;;;0.50;0.50;;;5.80;97.60;;;;;;5071177;28;20465;-64
2024/02/24 07:49:04;;;;;;;0.60;0.53;;;6.50;98.40;;;;;;5070535;28;20166;-64
2024/02/24 07:51:30;;;;;;;0.97;0.50;;;7.50;97.30;;;;;;5071066;28;20542;-64
2024/02/24 07:53:56;;;;;;;0.50;0.50;;;7.80;94.30;;;;;;5071198;28;20618;-64
2024/02/24 07:56:25;;;;;;;0.40;0.40;;;8.40;94.30;;;;;;5070665;28;20686;-64
2024/02/24 07:58:51;;;;;;;0.40;0.40;;;9.00;90.70;;;;;;5070789;28;20173;-64
2024/02/24 08:01:17;;;;;;;0.40;0.40;;;9.50;91.30;;;;;;5071266;28;20268;-64
2024/02/24 08:03:44;;;;;;;0.40;0.40;;;10.60;89.00;;;;;;5071152;28;20952;-64
2024/02/24 08:06:09;;;;;;;0.60;0.50;;;11.90;86.90;;;;;;5070889;28;20816;-64
2024/02/24 08:08:36;;;;;;;0.83;0.50;;;13.40;81.90;;;;;;5070879;28;20408;-65
2024/02/24 08:11:03;;;;;;;0.40;0.40;;;15.00;75.60;;;;;;5070813;28;20560;-64
2024/02/24 08:13:29;;;;;;;1.10;0.57;;;16.70;68.00;;;;;;5070417;28;20424;-62
2024/02/24 08:15:54;;;;;;;0.70;0.67;;;18.10;65.10;;;;;;5070243;28;20386;-62
2024/02/24 08:18:20;;;;;;;1.27;0.63;;;19.50;55.40;;;;;;5070679;28;20177;-62
2024/02/24 08:20:46;;;;;;;0.80;0.80;;;20.10;53.10;;;;;;5073730;28;20531;-62
2024/02/24 08:23:12;;;;;;;1.10;0.70;;;20.40;51.20;;;;;;5074648;28;20201;-63
2024/02/24 08:25:37;;;;;;;0.67;0.67;;;20.80;49.70;;;;;;5074660;28;20200;-63
2024/02/24 08:28:03;;;;;;;0.57;0.50;;;20.70;48.30;;;;;;5074511;28;20241;-63
2024/02/24 08:30:29;;;;;;;0.50;0.50;;;19.80;46.40;;;;;;5074686;28;20256;-63
2024/02/24 08:32:54;;;;;;;0.60;0.60;;;18.70;47.20;;;;;;5074386;28;20933;-63
2024/02/24 08:35:20;;;;;;;0.80;0.80;;;18.10;48.70;;;;;;5074571;28;20165;-63
2024/02/24 08:37:46;;;;;;;0.93;0.80;;;17.20;49.60;;;;;;5074218;28;20180;-62
2024/02/24 08:40:12;;;;;;;1.83;0.70;;;16.50;50.70;;;;;;5074489;28;20178;-62
2024/02/24 08:42:38;;;;;;;0.50;0.50;;;15.60;53.00;;;;;;5074276;28;20243;-62
2024/02/24 08:45:04;;;;;;;1.17;1.10;;;14.40;54.80;;;;;;5074230;28;20869;-63
2024/02/24 08:47:30;;;;;;;1.00;1.00;;;14.00;56.80;;;;;;5074029;28;20422;-62
2024/02/24 08:49:56;;;;;;;0.67;0.67;;;14.30;57.20;;;;;;5074109;28;20408;-62
2024/02/24 08:52:21;;;;;;;1.80;0.60;;;14.80;55.80;;;;;;5074249;28;20181;-63
2024/02/24 08:54:47;;;;;;;0.83;0.60;;;15.00;54.70;;;;;;5074211;28;20646;-62
2024/02/24 08:57:12;;;;;;;0.70;0.63;;;15.20;54.30;;;;;;5073644;28;20173;-63
2024/02/24 08:59:38;;;;;;;0.60;0.60;;;15.70;56.00;;;;;;5073598;28;20205;-63
2024/02/24 09:02:04;;;;;;;0.57;0.57;;;16.90;54.70;;;;;;5073452;28;20175;-62
2024/02/24 09:04:30;;;;;;;0.30;0.30;;;17.50;51.80;;;;;;5073501;28;20207;-62
2024/02/24 09:06:55;;;;;;;0.70;0.60;;;17.20;50.20;;;;;;5073095;28;20384;-62
2024/02/24 09:09:21;;;;;;;1.10;1.03;;;17.00;51.10;;;;;;5073461;28;20544;-62
2024/02/24 09:11:47;;;;;;;1.63;1.10;;;17.80;51.60;;;;;;5073851;28;20658;-62
2024/02/24 09:14:13;;;;;;;0.60;0.50;;;18.40;51.50;;;;;;5073805;28;20193;-62
2024/02/24 09:16:39;;;;;;;0.50;0.50;;;18.30;51.40;;;;;;5073820;28;20788;-62
2024/02/24 09:19:04;;;;;;;0.53;0.50;;;18.50;49.40;;;;;;5073217;28;20383;-62
2024/02/24 09:21:30;;;;;;;0.67;0.60;;;18.50;49.40;;;;;;5073728;28;20615;-63
2024/02/24 09:23:57;;;;;;;0.50;0.50;;;18.70;50.60;;;;;;5073529;28;20182;-63
2024/02/24 09:26:23;;;;;;;0.63;0.50;;;18.90;49.30;;;;;;5073558;28;20828;-63
2024/02/24 09:28:49;;;;;;;0.67;0.67;;;19.30;48.10;;;;;;5073310;28;20412;-63
2024/02/24 09:31:15;;;;;;;0.80;0.50;;;19.50;47.00;;;;;;5073070;28;20408;-63
2024/02/24 09:33:40;;;;;;;0.40;0.40;;;19.40;47.40;;;;;;5073236;28;20698;-62
2024/02/24 09:36:07;;;;;;;0.70;0.50;;;18.40;46.10;;;;;;5073443;28;20183;-62
2024/02/24 09:38:32;;;;;;;1.00;0.50;;;16.80;47.40;;;;;;5073209;28;20222;-61
2024/02/24 09:40:58;;;;;;;0.70;0.70;;;15.40;52.20;;;;;;5073462;28;20423;-61
2024/02/24 09:43:25;;;;;;;1.23;0.60;;;14.30;53.00;;;;;;5073232;28;20190;-62
2024/02/24 09:45:51;;;;;;;2.40;0.60;;;13.70;54.20;;;;;;5073208;28;20194;-61
2024/02/24 09:48:18;;;;;;;0.67;0.67;;;13.50;54.50;;;;;;5072983;28;20408;-61
2024/02/24 09:50:43;;;;;;;2.30;0.70;;;13.20;54.90;;;;;;5073150;28;20417;-61
2024/02/24 09:53:09;;;;;;;0.80;0.80;;;13.00;56.10;;;;;;5073170;28;20872;-61
2024/02/24 09:55:36;;;;;;;0.40;0.40;;;12.70;56.10;;;;;;5073259;28;20174;-61
2024/02/24 09:58:03;;;;;;;1.57;0.70;;;12.30;57.00;;;;;;5072878;28;20266;-61
2024/02/24 10:00:29;;;;;;;1.40;1.00;;;11.80;56.20;;;;;;5073045;28;20458;-61
2024/02/24 10:02:56;;;;;;;0.70;0.70;;;12.20;57.60;;;;;;5072848;28;20872;-62
2024/02/24 10:05:21;;;;;;;0.63;0.63;;;12.90;56.80;;;;;;5072852;28;20463;-62
2024/02/24 10:07:47;;;;;;;0.70;0.70;;;14.10;57.60;;;;;;5072663;28;20405;-62
2024/02/24 10:10:15;;;;;;;0.50;0.50;;;15.40;53.70;;;;;;5072748;28;20164;-62
2024/02/24 10:12:57;;;;;;;1.73;0.53;;;15.50;51.30;;;;;;5072738;28;20241;-62
2024/02/24 10:15:24;;;;;;;0.60;0.50;;;15.20;52.70;;;;;;5072595;28;20448;-62
2024/02/24 10:17:53;;;;;;;1.03;0.70;;;15.20;52.40;;;;;;5072423;28;20404;-61
2024/02/24 10:20:18;;;;;;;1.63;0.77;;;14.30;50.70;;;;;;5072604;28;20404;-62
2024/02/24 10:22:44;;;;;;;0.60;0.60;;;13.40;52.50;;;;;;5072455;28;20434;-62
2024/02/24 10:25:10;;;;;;;0.70;0.70;;;12.30;54.70;;;;;;5072506;28;20666;-62
2024/02/24 10:27:36;;;;;;;0.63;0.60;;;11.30;57.10;;;;;;5072192;28;20642;-62
2024/02/24 10:30:04;;;;;;;0.70;0.70;;;10.40;57.40;;;;;;5072429;28;20493;-62
2024/02/24 10:32:33;;;;;;;0.60;0.57;;;9.80;60.30;;;;;;5072244;28;20672;-62
2024/02/24 10:35:01;;;;;;;0.70;0.50;;;9.20;64.70;;;;;;5072386;28;20184;-61
2024/02/24 10:37:27;;;;;;;2.58;0.77;;;8.70;64.50;;;;;;5072071;28;20223;-62
2024/02/24 10:39:53;;;;;;;0.50;0.50;;;8.50;66.60;;;;;;5072240;28;20174;-61
2024/02/24 10:42:25;;;;;;;0.50;0.50;;;8.20;67.80;;;;;;5071396;28;20169;-62
2024/02/24 10:44:51;;;;;;;0.50;0.50;;;8.70;71.90;;;;;;5072117;28;20448;-62
2024/02/24 10:47:17;;;;;;;0.80;0.50;;;9.80;68.80;;;;;;5071895;28;20487;-62
2024/02/24 10:49:43;;;;;;;0.50;0.50;;;10.60;63.90;;;;;;5071903;28;20951;-62
2024/02/24 10:52:09;;;;;;;0.60;0.60;;;10.70;59.60;;;;;;5071523;28;20208;-62
2024/02/24 10:54:37;;;;;;;0.40;0.40;;;10.50;59.20;;;;;;5071620;28;20275;-62
2024/02/24 10:57:05;;;;;;;1.23;0.60;;;10.40;61.40;;;;;;5071734;28;20815;-62
2024/02/24 10:59:31;;;;;;;0.63;0.63;;;10.30;61.80;;;;;;5071942;28;20423;-62
2024/02/24 11:02:06;;;;;;;3.08;0.50;;;10.00;62.70;;;;;;5071497;28;20472;-62
2024/02/24 11:04:36;;;;;;;0.95;0.50;;;9.40;64.10;;;;;;5071528;28;20195;-62
2024/02/24 11:07:03;;;;;;;0.50;0.50;;;9.10;66.90;;;;;;5071658;28;20589;-62
2024/02/24 11:09:28;;;;;;;3.22;0.80;;;8.70;70.10;;;;;;5071774;28;20213;-62
2024/02/24 11:12:03;;;;;;;0.43;0.43;;;8.40;70.00;;;;;;5071740;28;20197;-62
2024/02/24 11:14:31;;;;;;;1.95;0.50;;;8.40;70.80;;;;;;5071668;28;20185;-62
2024/02/24 11:16:59;;;;;;;0.98;0.68;;;8.70;72.60;;;;;;5071395;28;20184;-61
2024/02/24 11:19:45;;;;;;;0.65;0.60;;;9.20;72.00;;;;;;5071042;28;20176;-62
2024/02/24 11:22:30;;;;;;;0.73;0.60;;;9.90;67.70;;;;;;5071579;28;20708;-63
2024/02/24 11:25:04;;;;;;;0.43;0.43;;;10.20;64.40;;;;;;5066458;28;20207;-62
2024/02/24 11:27:31;;;;;;;1.05;0.40;;;9.90;65.70;;;;;;5066220;28;20192;-62
2024/02/24 11:30:17;;;;;;;2.50;0.57;;;9.60;70.20;;;;;;5057334;28;20258;-63
2024/02/24 11:32:51;;;;;;;0.70;0.60;;;9.70;72.70;;;;;;5052761;28;20217;-63
2024/02/24 11:35:17;;;;;;;1.75;0.80;;;9.90;70.60;;;;;;5070952;28;20782;-63
2024/02/24 11:37:44;;;;;;;0.98;0.63;;;10.20;65.90;;;;;;5071197;28;20649;-62
2024/02/24 11:40:11;;;;;;;0.80;0.80;;;10.50;64.50;;;;;;5079026;28;20685;-62
2024/02/24 11:42:38;;;;;;;0.47;0.47;;;10.50;65.00;;;;;;5068385;28;20185;-62
2024/02/24 11:45:06;;;;;;;1.58;0.60;;;10.40;63.90;;;;;;5071159;28;20208;-62
2024/02/24 11:47:35;;;;;;;0.60;0.60;;;10.20;65.20;;;;;;5071304;28;20177;-63
2024/02/24 11:50:00;;;;;;;0.47;0.47;;;9.90;64.80;;;;;;5071232;28;20212;-62
2024/02/24 11:52:26;;;;;;;0.53;0.53;;;9.90;67.30;;;;;;5065960;28;20417;-62
2024/02/24 11:54:52;;;;;;;1.23;0.80;;;10.10;67.40;;;;;;5059314;28;20186;-62
2024/02/24 11:57:18;;;;;;;0.63;0.50;;;10.30;65.10;;;;;;5077677;28;20180;-62
2024/02/24 11:59:44;;;;;;;0.87;0.60;;;10.40;64.00;;;;;;5095180;28;20225;-62
2024/02/24 12:02:15;;;;;;;0.50;0.40;;;10.50;63.60;;;;;;5091412;28;20407;-62
2024/02/24 12:04:40;;;;;;;0.50;0.50;;;10.50;65.00;;;;;;5067233;28;20208;-62
2024/02/24 12:07:06;;;;;;;0.40;0.40;;;10.30;64.30;;;;;;5074791;28;20632;-62
2024/02/24 12:09:32;;;;;;;0.77;0.50;;;10.50;66.00;;;;;;5075151;28;20170;-63
2024/02/24 12:11:58;;;;;;;1.20;0.70;;;10.70;63.90;;;;;;5073837;28;20616;-62
2024/02/24 12:14:28;;;;;;;0.93;0.67;;;10.80;62.50;;;;;;5074966;28;20442;-63
2024/02/24 12:16:56;;;;;;;0.70;0.70;;;11.00;62.10;;;;;;5074858;28;20165;-63
2024/02/24 12:19:27;;;;;;;0.95;0.47;;;11.00;63.40;;;;;;5072903;28;20958;-62
2024/02/24 12:21:54;;;;;;;0.80;0.52;;;10.40;66.60;;;;;;5066055;28;20652;-62
2024/02/24 12:24:29;;;;;;;0.60;0.60;;;9.80;65.00;;;;;;5054628;28;20197;-62
2024/02/24 12:27:01;;;;;;;0.68;0.50;;;9.20;65.70;;;;;;5069492;28;20197;-62
2024/02/24 12:29:29;;;;;;;2.63;0.85;;;8.70;68.30;;;;;;5074853;28;20165;-62
2024/02/24 12:31:55;;;;;;;3.08;2.28;;;8.60;70.40;;;;;;5074712;28;20220;-62
2024/02/24 12:34:21;;;;;;;0.73;0.73;;;8.40;70.40;;;;;;5074544;28;20290;-63
2024/02/24 12:36:52;;;;;;;9.13;5.53;;;8.40;73.90;;;;;;5074996;28;20227;-63
2024/02/24 12:39:17;;;;;;;2.22;2.03;;;8.70;74.60;;;;;;5074337;28;20174;-63
2024/02/24 12:41:44;;;;;;;2.70;1.90;;;8.90;72.30;;;;;;5069173;28;20768;-63
2024/02/24 12:44:10;;;;;;;1.85;1.65;;;9.10;72.20;;;;;;5067052;28;20209;-62
2024/02/24 12:46:36;;;;;;;0.67;0.57;;;9.20;73.60;;;;;;5085262;28;20204;-62
2024/02/24 12:49:01;;;;;;;2.10;1.80;;;9.20;71.70;;;;;;5088680;28;20948;-62
2024/02/24 12:51:27;;;;;;;0.50;0.50;;;9.20;71.50;;;;;;5054322;28;20182;-62